Time;durP1;ratioP1;P1;durP2;ratioP2;P2;SDS_P1;SDS_P2;PMS_P1;PMS_P2;Temp;Humidity;BMP_temperature;BMP_pressure;BME280_temperature;BME280_humidity;BME280_pressure;Samples;Min_cycle;Max_cycle;Signal;HPM_P1;HPM_P2
2023/03/29 18:21:47;;;;;;;4.80;2.92;;;;;;;12.61;100.00;96286.72;5072530;27;20551;-70
2023/03/29 18:24:14;;;;;;;6.05;3.65;;;;;;;12.43;99.44;96274.94;5072485;28;20207;-69
2023/03/29 18:26:40;;;;;;;5.60;2.63;;;;;;;12.25;99.25;96272.69;5072905;28;20638;-68
2023/03/29 18:29:07;;;;;;;4.53;2.33;;;;;;;12.03;100.00;96282.59;5072030;28;20207;-68
2023/03/29 18:31:34;;;;;;;4.88;2.50;;;;;;;11.85;100.00;96280.34;5072948;28;20195;-68
2023/03/29 18:34:01;;;;;;;6.15;2.63;;;;;;;11.81;100.00;96283.53;5072484;28;20215;-68
2023/03/29 18:36:29;;;;;;;7.13;2.28;;;;;;;11.69;100.00;96280.53;5072804;28;20212;-68
2023/03/29 18:39:04;;;;;;;6.13;1.90;;;;;;;11.51;100.00;96279.25;5073112;28;20207;-68
2023/03/29 18:41:31;;;;;;;5.27;1.67;;;;;;;11.14;100.00;96289.81;5072691;28;20215;-68
2023/03/29 18:43:59;;;;;;;3.43;1.90;;;;;;;10.98;100.00;96289.16;5072233;28;20215;-69
2023/03/29 18:46:29;;;;;;;3.30;2.20;;;;;;;10.79;100.00;96286.19;5072592;28;20664;-67
2023/03/29 18:48:56;;;;;;;4.53;2.50;;;;;;;10.88;100.00;96267.47;5072860;28;20215;-68
2023/03/29 18:51:24;;;;;;;3.85;2.40;;;;;;;11.00;100.00;96290.63;5072639;28;20196;-68
2023/03/29 18:53:51;;;;;;;9.50;4.33;;;;;;;10.90;100.00;96297.13;5072689;28;20204;-68
2023/03/29 18:56:19;;;;;;;21.63;7.57;;;;;;;11.10;100.00;96307.00;5072871;28;20215;-67
2023/03/29 18:58:46;;;;;;;15.83;7.20;;;;;;;11.04;100.00;96302.44;5072451;28;20215;-68
2023/03/29 19:01:12;;;;;;;8.87;4.50;;;;;;;11.05;100.00;96301.44;5072941;28;20315;-68
2023/03/29 19:03:39;;;;;;;13.90;4.27;;;;;;;10.93;100.00;96288.06;5072579;28;20234;-68
2023/03/29 19:06:07;;;;;;;6.73;3.20;;;;;;;10.94;100.00;96286.03;5072546;28;21249;-67
2023/03/29 19:08:35;;;;;;;8.57;3.40;;;;;;;11.08;100.00;96284.44;5072678;28;20204;-68
2023/03/29 19:11:03;;;;;;;16.87;6.13;;;;;;;11.12;100.00;96283.09;5072579;28;20210;-67
2023/03/29 19:13:31;;;;;;;27.43;9.90;;;;;;;11.16;100.00;96276.47;5072076;28;20228;-68
2023/03/29 19:15:57;;;;;;;26.40;9.60;;;;;;;10.93;100.00;96280.16;5071397;28;20691;-67
2023/03/29 19:18:24;;;;;;;5.33;3.23;;;;;;;10.88;100.00;96272.75;5072531;28;20199;-67
2023/03/29 19:20:52;;;;;;;6.60;2.83;;;;;;;10.63;100.00;96278.44;5071726;28;20314;-67
2023/03/29 19:23:20;;;;;;;6.70;3.07;;;;;;;10.72;100.00;96270.28;5072468;28;20223;-68
2023/03/29 19:25:51;;;;;;;8.30;2.97;;;;;;;10.81;100.00;96271.03;5071128;28;20218;-68
2023/03/29 19:28:18;;;;;;;5.60;2.83;;;;;;;10.65;100.00;96271.16;5071327;28;20400;-68
2023/03/29 19:30:45;;;;;;;5.97;2.60;;;;;;;10.72;100.00;96261.56;5072049;28;20196;-68
2023/03/29 19:33:13;;;;;;;5.00;2.70;;;;;;;10.64;100.00;96269.50;5058764;28;20569;-68
2023/03/29 19:35:39;;;;;;;8.27;2.97;;;;;;;10.62;100.00;96267.03;5058550;28;20209;-68
2023/03/29 19:38:06;;;;;;;6.60;2.53;;;;;;;10.59;100.00;96266.56;5058512;28;20274;-69
2023/03/29 19:40:32;;;;;;;4.27;2.27;;;;;;;10.54;100.00;96263.66;5058530;28;20220;-68
2023/03/29 19:42:59;;;;;;;6.47;3.10;;;;;;;10.55;100.00;96260.00;5058772;28;20452;-68
2023/03/29 19:45:26;;;;;;;4.73;2.80;;;;;;;10.53;100.00;96260.19;5058154;28;20212;-68
2023/03/29 19:47:55;;;;;;;10.50;3.07;;;;;;;10.61;100.00;96254.84;5058415;28;20673;-68
2023/03/29 19:50:22;;;;;;;6.07;2.50;;;;;;;10.55;100.00;96260.00;5058480;28;20197;-68
2023/03/29 19:52:48;;;;;;;5.97;3.10;;;;;;;10.52;100.00;96257.75;5057949;28;20229;-68
2023/03/29 19:55:15;;;;;;;7.00;2.73;;;;;;;10.53;100.00;96251.50;5056119;28;20201;-67
2023/03/29 19:57:42;;;;;;;7.30;3.03;;;;;;;10.50;100.00;96251.81;5058820;28;20680;-68
2023/03/29 20:00:10;;;;;;;7.50;3.27;;;;;;;10.58;100.00;96241.25;5058915;28;20233;-68
2023/03/29 20:02:36;;;;;;;7.70;3.30;;;;;;;10.63;100.00;96249.44;5057368;28;20284;-68
2023/03/29 20:05:05;;;;;;;9.97;3.07;;;;;;;10.78;100.00;96245.00;5057662;28;20212;-67
2023/03/29 20:07:32;;;;;;;6.20;3.60;;;;;;;10.74;100.00;96241.09;5058377;28;20205;-68
2023/03/29 20:09:58;;;;;;;6.60;3.30;;;;;;;10.82;100.00;96241.84;5058459;28;20201;-68
2023/03/29 20:12:25;;;;;;;8.70;3.50;;;;;;;10.94;100.00;96228.03;5057913;28;20231;-68
2023/03/29 20:14:51;;;;;;;6.37;3.30;;;;;;;11.02;100.00;96216.59;5054301;28;20327;-68
2023/03/29 20:17:18;;;;;;;4.83;2.50;;;;;;;11.23;100.00;96211.44;5058775;28;20216;-68
2023/03/29 20:19:44;;;;;;;6.57;2.80;;;;;;;11.47;100.00;96212.00;5058244;28;20215;-68
2023/03/29 20:22:12;;;;;;;7.93;2.70;;;;;;;11.68;99.62;96204.16;5057923;28;20604;-68
2023/03/29 20:24:39;;;;;;;9.80;3.00;;;;;;;11.65;99.09;96201.91;5055686;28;20209;-69
2023/03/29 20:27:05;;;;;;;8.70;2.90;;;;;;;11.47;99.10;96193.53;5056784;28;21020;-68
2023/03/29 20:29:32;;;;;;;7.57;2.57;;;;;;;11.57;98.24;96192.28;5057285;28;20227;-68
2023/03/29 20:31:59;;;;;;;5.10;2.60;;;;;;;11.68;96.96;96199.72;5057126;28;20220;-69
2023/03/29 20:34:25;;;;;;;9.07;2.77;;;;;;;11.71;96.22;96211.72;5056320;28;20204;-68
2023/03/29 20:36:53;;;;;;;12.67;3.10;;;;;;;11.70;96.15;96210.91;5056870;28;20212;-68
2023/03/29 20:39:22;;;;;;;9.87;2.53;;;;;;;11.72;96.09;96200.16;5057444;28;20211;-68
2023/03/29 20:41:50;;;;;;;12.43;2.83;;;;;;;11.60;95.83;96210.38;5057294;28;20243;-67
2023/03/29 20:44:17;;;;;;;12.37;2.83;;;;;;;11.63;95.50;96203.91;5055082;28;20690;-68
2023/03/29 20:46:53;;;;;;;9.93;2.67;;;;;;;11.61;95.87;96203.28;5055998;28;20219;-68
2023/03/29 20:49:25;;;;;;;10.10;3.63;;;;;;;11.57;95.84;96202.00;5056808;28;20763;-68
2023/03/29 20:51:57;;;;;;;6.00;2.50;;;;;;;11.60;95.38;96199.00;5056581;28;20382;-68
2023/03/29 20:54:25;;;;;;;8.00;2.77;;;;;;;11.67;95.05;96197.25;5056535;28;20203;-68
2023/03/29 20:56:53;;;;;;;6.10;2.60;;;;;;;11.59;94.76;96200.81;5055228;28;20240;-68
2023/03/29 20:59:20;;;;;;;6.63;2.27;;;;;;;11.61;93.79;96195.38;5054657;28;20661;-68
2023/03/29 21:01:49;;;;;;;8.07;2.60;;;;;;;11.66;93.68;96195.63;5056370;28;20701;-69
2023/03/29 21:04:16;;;;;;;9.47;2.57;;;;;;;11.75;93.07;96186.59;5055611;28;20216;-68
2023/03/29 21:06:44;;;;;;;6.93;2.10;;;;;;;11.77;93.04;96181.94;5055294;28;20214;-67
2023/03/29 21:09:11;;;;;;;17.70;2.97;;;;;;;11.78;92.83;96178.31;5056743;28;21031;-68
2023/03/29 21:11:39;;;;;;;6.97;2.27;;;;;;;11.93;92.14;96173.81;5057193;28;20220;-69
2023/03/29 21:14:05;;;;;;;4.87;2.10;;;;;;;11.84;92.19;96170.47;5056114;28;20208;-67
2023/03/29 21:16:31;;;;;;;10.40;2.23;;;;;;;11.77;92.15;96169.59;5057076;28;20211;-67
2023/03/29 21:18:58;;;;;;;6.93;2.00;;;;;;;11.81;91.89;96159.44;5056972;28;20907;-68
2023/03/29 21:21:24;;;;;;;9.03;2.03;;;;;;;11.84;91.40;96161.72;5056451;28;20216;-67
2023/03/29 21:23:51;;;;;;;8.10;2.30;;;;;;;11.92;90.08;96164.25;5056808;28;20215;-67
2023/03/29 21:26:17;;;;;;;5.78;2.53;;;;;;;12.03;89.17;96156.66;5057346;28;20212;-68
2023/03/29 21:28:47;;;;;;;7.20;2.00;;;;;;;12.07;89.15;96157.91;5056845;28;20237;-68
2023/03/29 21:31:13;;;;;;;5.93;1.97;;;;;;;11.96;89.35;96168.16;5056874;28;20196;-68
2023/03/29 21:33:40;;;;;;;4.97;1.60;;;;;;;11.98;88.43;96166.97;5056570;28;20878;-68
2023/03/29 21:36:07;;;;;;;5.40;1.80;;;;;;;12.04;88.51;96162.75;5056998;28;20319;-68
2023/03/29 21:38:34;;;;;;;8.00;2.07;;;;;;;12.04;88.07;96165.38;5057098;28;20200;-68
2023/03/29 21:41:01;;;;;;;6.93;1.70;;;;;;;11.99;88.61;96160.69;5056794;28;21028;-68
2023/03/29 21:43:27;;;;;;;9.87;1.97;;;;;;;11.92;88.69;96161.63;5056772;28;20216;-68
2023/03/29 21:45:56;;;;;;;5.13;1.70;;;;;;;12.03;88.70;96155.81;5056435;28;20673;-68
